sensor_id;sensor_type;location;lat;lon;timestamp;pressure;altitude;pressure_sealevel;temperature;humidity
64340;BME280;63709;53.258;-8.814;2023-04-25T00:02:12;101972.19;;;8.98;100.00
64340;BME280;63709;53.258;-8.814;2023-04-25T00:04:39;101969.91;;;8.90;100.00
64340;BME280;63709;53.258;-8.814;2023-04-25T00:07:05;101967.16;;;8.92;100.00
64340;BME280;63709;53.258;-8.814;2023-04-25T00:09:31;101960.94;;;8.74;100.00
64340;BME280;63709;53.258;-8.814;2023-04-25T00:11:58;101935.88;;;8.61;100.00
64340;BME280;63709;53.258;-8.814;2023-04-25T00:14:25;101969.50;;;8.81;100.00
64340;BME280;63709;53.258;-8.814;2023-04-25T00:16:53;101955.84;;;8.69;100.00
64340;BME280;63709;53.258;-8.814;2023-04-25T00:19:20;101957.00;;;8.64;100.00
64340;BME280;63709;53.258;-8.814;2023-04-25T00:21:46;101977.00;;;8.72;100.00
64340;BME280;63709;53.258;-8.814;2023-04-25T00:24:12;101982.94;;;8.60;100.00
64340;BME280;63709;53.258;-8.814;2023-04-25T00:26:40;101977.94;;;8.53;100.00
64340;BME280;63709;53.258;-8.814;2023-04-25T00:29:06;101973.44;;;8.55;100.00
64340;BME280;63709;53.258;-8.814;2023-04-25T00:31:31;101962.66;;;8.39;100.00
64340;BME280;63709;53.258;-8.814;2023-04-25T00:33:58;101981.44;;;8.34;100.00
64340;BME280;63709;53.258;-8.814;2023-04-25T00:36:24;101961.41;;;8.27;100.00
64340;BME280;63709;53.258;-8.814;2023-04-25T00:38:49;101977.38;;;8.27;100.00
64340;BME280;63709;53.258;-8.814;2023-04-25T00:41:15;101968.16;;;8.15;100.00
64340;BME280;63709;53.258;-8.814;2023-04-25T00:43:45;101967.34;;;7.94;100.00
64340;BME280;63709;53.258;-8.814;2023-04-25T00:46:11;101972.81;;;8.10;100.00
64340;BME280;63709;53.258;-8.814;2023-04-25T00:48:39;101970.44;;;8.04;100.00
64340;BME280;63709;53.258;-8.814;2023-04-25T00:51:05;101983.53;;;8.09;100.00
64340;BME280;63709;53.258;-8.814;2023-04-25T00:53:31;101989.00;;;7.85;100.00
64340;BME280;63709;53.258;-8.814;2023-04-25T00:55:58;101985.53;;;8.04;100.00
64340;BME280;63709;53.258;-8.814;2023-04-25T00:58:24;101983.53;;;7.90;100.00
64340;BME280;63709;53.258;-8.814;2023-04-25T01:00:51;101952.53;;;7.89;100.00
64340;BME280;63709;53.258;-8.814;2023-04-25T01:03:19;101974.47;;;7.94;100.00
64340;BME280;63709;53.258;-8.814;2023-04-25T01:05:45;101960.09;;;7.98;100.00
64340;BME280;63709;53.258;-8.814;2023-04-25T01:08:12;101976.69;;;8.03;100.00
64340;BME280;63709;53.258;-8.814;2023-04-25T01:10:38;101971.47;;;8.02;100.00
64340;BME280;63709;53.258;-8.814;2023-04-25T01:13:05;101971.22;;;7.87;100.00
64340;BME280;63709;53.258;-8.814;2023-04-25T01:15:32;101964.03;;;7.89;100.00
64340;BME280;63709;53.258;-8.814;2023-04-25T01:17:59;101932.41;;;7.64;100.00
64340;BME280;63709;53.258;-8.814;2023-04-25T01:20:26;101953.81;;;7.80;100.00
64340;BME280;63709;53.258;-8.814;2023-04-25T01:22:54;101971.34;;;7.84;100.00
64340;BME280;63709;53.258;-8.814;2023-04-25T01:25:22;101959.44;;;7.93;100.00
64340;BME280;63709;53.258;-8.814;2023-04-25T01:27:49;101966.50;;;7.94;100.00
64340;BME280;63709;53.258;-8.814;2023-04-25T01:30:15;101906.47;;;7.49;100.00
64340;BME280;63709;53.258;-8.814;2023-04-25T01:32:42;101965.91;;;7.87;100.00
64340;BME280;63709;53.258;-8.814;2023-04-25T01:35:11;101948.56;;;7.79;100.00
64340;BME280;63709;53.258;-8.814;2023-04-25T01:37:38;101963.88;;;7.92;100.00
64340;BME280;63709;53.258;-8.814;2023-04-25T01:40:06;101960.50;;;7.89;100.00
64340;BME280;63709;53.258;-8.814;2023-04-25T01:42:34;101951.66;;;7.88;100.00
64340;BME280;63709;53.258;-8.814;2023-04-25T01:45:01;101952.19;;;7.96;100.00
64340;BME280;63709;53.258;-8.814;2023-04-25T01:47:27;101944.78;;;7.84;100.00
64340;BME280;63709;53.258;-8.814;2023-04-25T01:49:53;101962.94;;;7.93;100.00
64340;BME280;63709;53.258;-8.814;2023-04-25T01:52:18;101931.03;;;7.74;100.00
64340;BME280;63709;53.258;-8.814;2023-04-25T01:54:51;101948.25;;;7.66;100.00
64340;BME280;63709;53.258;-8.814;2023-04-25T01:57:17;101956.47;;;7.80;100.00
64340;BME280;63709;53.258;-8.814;2023-04-25T01:59:43;101968.44;;;7.70;100.00
64340;BME280;63709;53.258;-8.814;2023-04-25T02:02:09;101942.44;;;7.58;100.00
64340;BME280;63709;53.258;-8.814;2023-04-25T02:04:35;101951.91;;;7.63;100.00
64340;BME280;63709;53.258;-8.814;2023-04-25T02:07:01;101953.78;;;7.61;100.00
64340;BME280;63709;53.258;-8.814;2023-04-25T02:09:26;101968.56;;;7.67;100.00
64340;BME280;63709;53.258;-8.814;2023-04-25T02:11:52;101958.97;;;7.44;100.00
64340;BME280;63709;53.258;-8.814;2023-04-25T02:14:19;101976.69;;;7.43;100.00
64340;BME280;63709;53.258;-8.814;2023-04-25T02:16:44;101960.38;;;7.32;100.00
64340;BME280;63709;53.258;-8.814;2023-04-25T02:19:12;101953.06;;;7.17;100.00
64340;BME280;63709;53.258;-8.814;2023-04-25T02:21:38;101972.97;;;7.27;100.00
64340;BME280;63709;53.258;-8.814;2023-04-25T02:24:04;101984.50;;;7.26;100.00
64340;BME280;63709;53.258;-8.814;2023-04-25T02:26:30;101990.00;;;7.01;100.00
64340;BME280;63709;53.258;-8.814;2023-04-25T02:28:58;101965.06;;;7.05;100.00
64340;BME280;63709;53.258;-8.814;2023-04-25T02:31:24;101976.25;;;7.12;100.00
64340;BME280;63709;53.258;-8.814;2023-04-25T02:33:49;101990.47;;;7.11;100.00
64340;BME280;63709;53.258;-8.814;2023-04-25T02:36:15;101991.66;;;7.03;100.00
64340;BME280;63709;53.258;-8.814;2023-04-25T02:38:40;101986.22;;;7.07;100.00
64340;BME280;63709;53.258;-8.814;2023-04-25T02:41:06;101977.59;;;7.01;100.00
64340;BME280;63709;53.258;-8.814;2023-04-25T02:43:32;101982.09;;;6.99;100.00
64340;BME280;63709;53.258;-8.814;2023-04-25T02:45:57;101986.00;;;6.91;100.00
64340;BME280;63709;53.258;-8.814;2023-04-25T02:48:23;101956.31;;;6.81;100.00
64340;BME280;63709;53.258;-8.814;2023-04-25T02:50:48;101974.38;;;6.93;100.00
64340;BME280;63709;53.258;-8.814;2023-04-25T02:53:17;101970.94;;;6.91;100.00
64340;BME280;63709;53.258;-8.814;2023-04-25T02:55:42;101973.47;;;6.94;100.00
64340;BME280;63709;53.258;-8.814;2023-04-25T02:58:08;101945.81;;;6.78;100.00
64340;BME280;63709;53.258;-8.814;2023-04-25T03:00:34;101967.66;;;6.85;100.00
64340;BME280;63709;53.258;-8.814;2023-04-25T03:03:00;101948.91;;;6.67;100.00
64340;BME280;63709;53.258;-8.814;2023-04-25T03:05:26;101972.66;;;6.70;100.00
64340;BME280;63709;53.258;-8.814;2023-04-25T03:07:52;101955.56;;;6.55;100.00
64340;BME280;63709;53.258;-8.814;2023-04-25T03:10:19;101969.97;;;6.72;100.00
64340;BME280;63709;53.258;-8.814;2023-04-25T03:12:45;101958.22;;;6.55;100.00
64340;BME280;63709;53.258;-8.814;2023-04-25T03:15:11;101973.66;;;6.68;100.00
64340;BME280;63709;53.258;-8.814;2023-04-25T03:17:38;101963.63;;;6.52;100.00
64340;BME280;63709;53.258;-8.814;2023-04-25T03:20:04;101972.28;;;6.58;100.00
64340;BME280;63709;53.258;-8.814;2023-04-25T03:22:31;101955.19;;;6.43;100.00
64340;BME280;63709;53.258;-8.814;2023-04-25T03:24:58;101971.59;;;6.52;100.00
64340;BME280;63709;53.258;-8.814;2023-04-25T03:27:23;101945.31;;;6.24;100.00
64340;BME280;63709;53.258;-8.814;2023-04-25T03:29:49;101961.84;;;6.31;100.00
64340;BME280;63709;53.258;-8.814;2023-04-25T03:32:15;101968.75;;;6.35;100.00
64340;BME280;63709;53.258;-8.814;2023-04-25T03:34:41;101942.22;;;6.13;100.00
64340;BME280;63709;53.258;-8.814;2023-04-25T03:37:08;101959.31;;;6.28;100.00
64340;BME280;63709;53.258;-8.814;2023-04-25T03:39:33;101944.44;;;6.24;100.00
64340;BME280;63709;53.258;-8.814;2023-04-25T03:41:59;101962.16;;;6.23;100.00
64340;BME280;63709;53.258;-8.814;2023-04-25T03:44:24;101968.50;;;6.19;100.00
64340;BME280;63709;53.258;-8.814;2023-04-25T03:46:50;101961.84;;;6.07;100.00
64340;BME280;63709;53.258;-8.814;2023-04-25T03:49:16;101974.69;;;6.18;100.00
64340;BME280;63709;53.258;-8.814;2023-04-25T03:51:42;101986.22;;;6.17;100.00
64340;BME280;63709;53.258;-8.814;2023-04-25T03:54:08;101974.81;;;6.15;100.00
64340;BME280;63709;53.258;-8.814;2023-04-25T03:56:35;101969.41;;;6.18;100.00
64340;BME280;63709;53.258;-8.814;2023-04-25T03:59:00;101976.25;;;6.24;100.00
64340;BME280;63709;53.258;-8.814;2023-04-25T04:01:26;101980.09;;;6.15;100.00
64340;BME280;63709;53.258;-8.814;2023-04-25T04:03:51;101965.81;;;5.96;100.00
64340;BME280;63709;53.258;-8.814;2023-04-25T04:06:18;101967.50;;;5.98;100.00
64340;BME280;63709;53.258;-8.814;2023-04-25T04:08:46;101961.00;;;6.07;100.00
64340;BME280;63709;53.258;-8.814;2023-04-25T04:11:12;101973.91;;;6.16;100.00
64340;BME280;63709;53.258;-8.814;2023-04-25T04:13:38;101959.94;;;6.11;100.00
64340;BME280;63709;53.258;-8.814;2023-04-25T04:16:04;101976.38;;;6.21;100.00
64340;BME280;63709;53.258;-8.814;2023-04-25T04:18:30;101953.41;;;5.98;100.00
64340;BME280;63709;53.258;-8.814;2023-04-25T04:20:56;101981.13;;;6.13;100.00
64340;BME280;63709;53.258;-8.814;2023-04-25T04:23:23;101961.06;;;6.05;100.00
64340;BME280;63709;53.258;-8.814;2023-04-25T04:25:49;101945.34;;;6.01;100.00
64340;BME280;63709;53.258;-8.814;2023-04-25T04:28:15;101950.47;;;6.05;100.00
64340;BME280;63709;53.258;-8.814;2023-04-25T04:30:42;101964.09;;;6.18;100.00
64340;BME280;63709;53.258;-8.814;2023-04-25T04:33:08;101957.66;;;6.02;100.00
64340;BME280;63709;53.258;-8.814;2023-04-25T04:35:34;101948.75;;;6.04;100.00
64340;BME280;63709;53.258;-8.814;2023-04-25T04:38:00;101955.38;;;5.91;100.00
64340;BME280;63709;53.258;-8.814;2023-04-25T04:40:26;101947.81;;;5.80;100.00
64340;BME280;63709;53.258;-8.814;2023-04-25T04:42:52;101952.94;;;5.85;100.00
64340;BME280;63709;53.258;-8.814;2023-04-25T04:45:19;101972.75;;;6.00;100.00
64340;BME280;63709;53.258;-8.814;2023-04-25T04:47:45;101970.16;;;5.98;100.00
64340;BME280;63709;53.258;-8.814;2023-04-25T04:50:11;101971.28;;;5.91;100.00
64340;BME280;63709;53.258;-8.814;2023-04-25T04:52:38;101953.19;;;5.79;100.00
64340;BME280;63709;53.258;-8.814;2023-04-25T04:55:04;101966.69;;;5.96;100.00
64340;BME280;63709;53.258;-8.814;2023-04-25T04:57:31;101966.56;;;5.99;100.00
64340;BME280;63709;53.258;-8.814;2023-04-25T04:59:58;101963.06;;;5.99;100.00
64340;BME280;63709;53.258;-8.814;2023-04-25T05:02:29;101967.13;;;5.84;100.00
64340;BME280;63709;53.258;-8.814;2023-04-25T05:04:56;101965.78;;;5.97;100.00
64340;BME280;63709;53.258;-8.814;2023-04-25T05:07:21;101947.72;;;5.83;100.00
64340;BME280;63709;53.258;-8.814;2023-04-25T05:09:47;101970.25;;;5.95;100.00
64340;BME280;63709;53.258;-8.814;2023-04-25T05:12:18;101942.91;;;5.70;100.00
64340;BME280;63709;53.258;-8.814;2023-04-25T05:14:45;101948.94;;;5.75;100.00
64340;BME280;63709;53.258;-8.814;2023-04-25T05:17:13;101958.47;;;5.79;100.00
64340;BME280;63709;53.258;-8.814;2023-04-25T05:19:40;101957.78;;;5.74;100.00
64340;BME280;63709;53.258;-8.814;2023-04-25T05:22:06;101949.06;;;5.70;100.00
64340;BME280;63709;53.258;-8.814;2023-04-25T05:24:32;101950.47;;;5.55;100.00
64340;BME280;63709;53.258;-8.814;2023-04-25T05:26:58;101951.25;;;5.59;100.00
64340;BME280;63709;53.258;-8.814;2023-04-25T05:29:24;101958.00;;;5.68;100.00
64340;BME280;63709;53.258;-8.814;2023-04-25T05:31:50;101948.22;;;5.70;100.00
64340;BME280;63709;53.258;-8.814;2023-04-25T05:34:15;101947.06;;;5.77;100.00
64340;BME280;63709;53.258;-8.814;2023-04-25T05:36:42;101962.00;;;5.54;100.00
64340;BME280;63709;53.258;-8.814;2023-04-25T05:39:07;101955.78;;;5.55;100.00
64340;BME280;63709;53.258;-8.814;2023-04-25T05:41:38;101964.06;;;5.71;100.00
64340;BME280;63709;53.258;-8.814;2023-04-25T05:44:03;101943.63;;;5.75;100.00
64340;BME280;63709;53.258;-8.814;2023-04-25T05:46:30;101953.03;;;5.82;100.00
64340;BME280;63709;53.258;-8.814;2023-04-25T05:48:56;101949.50;;;5.83;100.00
64340;BME280;63709;53.258;-8.814;2023-04-25T05:51:22;101937.28;;;5.79;100.00
64340;BME280;63709;53.258;-8.814;2023-04-25T05:53:47;101935.09;;;5.90;100.00
64340;BME280;63709;53.258;-8.814;2023-04-25T05:56:14;101919.44;;;5.84;100.00
64340;BME280;63709;53.258;-8.814;2023-04-25T05:58:41;101949.94;;;6.19;100.00
64340;BME280;63709;53.258;-8.814;2023-04-25T06:01:07;101937.66;;;6.17;100.00
64340;BME280;63709;53.258;-8.814;2023-04-25T06:03:33;101955.50;;;6.35;100.00
64340;BME280;63709;53.258;-8.814;2023-04-25T06:05:58;101960.63;;;6.40;100.00
64340;BME280;63709;53.258;-8.814;2023-04-25T06:08:28;101928.34;;;6.28;100.00
64340;BME280;63709;53.258;-8.814;2023-04-25T06:10:54;101954.81;;;6.52;100.00
64340;BME280;63709;53.258;-8.814;2023-04-25T06:13:22;101948.72;;;6.50;100.00
64340;BME280;63709;53.258;-8.814;2023-04-25T06:15:49;101947.69;;;6.54;100.00
64340;BME280;63709;53.258;-8.814;2023-04-25T06:18:14;101934.91;;;6.42;100.00
64340;BME280;63709;53.258;-8.814;2023-04-25T06:20:40;101955.56;;;6.55;100.00
64340;BME280;63709;53.258;-8.814;2023-04-25T06:23:06;101949.03;;;6.64;100.00
64340;BME280;63709;53.258;-8.814;2023-04-25T06:25:32;101930.41;;;6.66;100.00
64340;BME280;63709;53.258;-8.814;2023-04-25T06:27:57;101941.84;;;6.68;100.00
64340;BME280;63709;53.258;-8.814;2023-04-25T06:30:24;101941.00;;;6.66;100.00
64340;BME280;63709;53.258;-8.814;2023-04-25T06:32:54;101910.13;;;6.43;100.00
64340;BME280;63709;53.258;-8.814;2023-04-25T06:35:19;101919.91;;;6.63;100.00
64340;BME280;63709;53.258;-8.814;2023-04-25T06:37:46;101938.03;;;6.73;100.00
64340;BME280;63709;53.258;-8.814;2023-04-25T06:40:15;101925.09;;;6.66;100.00
64340;BME280;63709;53.258;-8.814;2023-04-25T06:42:44;101933.56;;;6.75;100.00
64340;BME280;63709;53.258;-8.814;2023-04-25T06:45:10;101922.94;;;6.75;100.00
64340;BME280;63709;53.258;-8.814;2023-04-25T06:47:36;101928.66;;;6.87;100.00
64340;BME280;63709;53.258;-8.814;2023-04-25T06:50:02;101914.91;;;6.77;100.00
64340;BME280;63709;53.258;-8.814;2023-04-25T06:52:28;101929.66;;;6.84;100.00
64340;BME280;63709;53.258;-8.814;2023-04-25T06:54:54;101912.75;;;7.07;100.00
64340;BME280;63709;53.258;-8.814;2023-04-25T06:57:21;101917.06;;;7.10;100.00
64340;BME280;63709;53.258;-8.814;2023-04-25T06:59:47;101915.00;;;6.96;100.00
64340;BME280;63709;53.258;-8.814;2023-04-25T07:02:12;101915.16;;;7.13;100.00
64340;BME280;63709;53.258;-8.814;2023-04-25T07:04:39;101917.84;;;7.12;100.00
64340;BME280;63709;53.258;-8.814;2023-04-25T07:07:04;101918.25;;;7.43;100.00
64340;BME280;63709;53.258;-8.814;2023-04-25T07:09:30;101921.16;;;7.37;100.00
64340;BME280;63709;53.258;-8.814;2023-04-25T07:12:01;101924.09;;;7.51;100.00
64340;BME280;63709;53.258;-8.814;2023-04-25T07:14:29;101919.59;;;7.33;100.00
64340;BME280;63709;53.258;-8.814;2023-04-25T07:16:54;101921.56;;;7.69;100.00
64340;BME280;63709;53.258;-8.814;2023-04-25T07:19:22;101920.69;;;7.68;100.00
64340;BME280;63709;53.258;-8.814;2023-04-25T07:21:53;101925.94;;;7.70;100.00
64340;BME280;63709;53.258;-8.814;2023-04-25T07:24:18;101906.97;;;7.78;100.00
64340;BME280;63709;53.258;-8.814;2023-04-25T07:26:45;101925.69;;;7.95;100.00
64340;BME280;63709;53.258;-8.814;2023-04-25T07:29:11;101905.63;;;8.07;100.00
64340;BME280;63709;53.258;-8.814;2023-04-25T07:31:37;101918.28;;;8.20;100.00
64340;BME280;63709;53.258;-8.814;2023-04-25T07:34:03;101931.97;;;8.30;100.00
64340;BME280;63709;53.258;-8.814;2023-04-25T07:36:28;101915.69;;;8.38;100.00
64340;BME280;63709;53.258;-8.814;2023-04-25T07:38:55;101929.19;;;8.52;100.00
64340;BME280;63709;53.258;-8.814;2023-04-25T07:41:22;101912.69;;;8.45;100.00
64340;BME280;63709;53.258;-8.814;2023-04-25T07:43:48;101907.56;;;8.41;100.00
64340;BME280;63709;53.258;-8.814;2023-04-25T07:46:14;101928.03;;;8.58;100.00
64340;BME280;63709;53.258;-8.814;2023-04-25T07:48:40;101904.66;;;8.82;100.00
64340;BME280;63709;53.258;-8.814;2023-04-25T07:51:06;101907.78;;;8.72;100.00
64340;BME280;63709;53.258;-8.814;2023-04-25T07:53:32;101899.13;;;8.86;100.00
64340;BME280;63709;53.258;-8.814;2023-04-25T07:56:00;101919.38;;;8.89;100.00
64340;BME280;63709;53.258;-8.814;2023-04-25T07:58:28;101920.41;;;9.04;100.00
64340;BME280;63709;53.258;-8.814;2023-04-25T08:00:53;101923.41;;;9.32;100.00
64340;BME280;63709;53.258;-8.814;2023-04-25T08:03:19;101925.28;;;9.13;100.00
64340;BME280;63709;53.258;-8.814;2023-04-25T08:05:46;101912.28;;;9.07;100.00
64340;BME280;63709;53.258;-8.814;2023-04-25T08:08:12;101910.75;;;9.53;100.00
64340;BME280;63709;53.258;-8.814;2023-04-25T08:10:38;101927.25;;;9.60;100.00
64340;BME280;63709;53.258;-8.814;2023-04-25T08:13:04;101925.66;;;9.40;100.00
64340;BME280;63709;53.258;-8.814;2023-04-25T08:15:30;101918.47;;;9.42;100.00
64340;BME280;63709;53.258;-8.814;2023-04-25T08:17:56;101930.31;;;9.69;100.00
64340;BME280;63709;53.258;-8.814;2023-04-25T08:20:27;101922.97;;;9.90;100.00
64340;BME280;63709;53.258;-8.814;2023-04-25T08:22:52;101930.69;;;9.79;100.00
64340;BME280;63709;53.258;-8.814;2023-04-25T08:25:19;101938.75;;;9.78;100.00
64340;BME280;63709;53.258;-8.814;2023-04-25T08:27:45;101910.78;;;9.69;100.00
64340;BME280;63709;53.258;-8.814;2023-04-25T08:30:11;101919.53;;;10.04;100.00
64340;BME280;63709;53.258;-8.814;2023-04-25T08:32:37;101937.44;;;10.18;100.00
64340;BME280;63709;53.258;-8.814;2023-04-25T08:35:06;101922.38;;;10.01;100.00
64340;BME280;63709;53.258;-8.814;2023-04-25T08:37:33;101935.88;;;10.31;100.00
64340;BME280;63709;53.258;-8.814;2023-04-25T08:39:58;101923.31;;;10.00;100.00
64340;BME280;63709;53.258;-8.814;2023-04-25T08:42:24;101932.41;;;10.29;100.00
64340;BME280;63709;53.258;-8.814;2023-04-25T08:44:53;101946.88;;;10.25;100.00
64340;BME280;63709;53.258;-8.814;2023-04-25T08:47:21;101942.69;;;10.04;100.00
64340;BME280;63709;53.258;-8.814;2023-04-25T08:49:51;101933.38;;;10.28;100.00
64340;BME280;63709;53.258;-8.814;2023-04-25T08:52:22;101937.38;;;10.67;100.00
64340;BME280;63709;53.258;-8.814;2023-04-25T08:54:48;101940.91;;;10.68;100.00
64340;BME280;63709;53.258;-8.814;2023-04-25T08:57:17;101941.25;;;10.77;100.00
64340;BME280;63709;53.258;-8.814;2023-04-25T08:59:45;101908.34;;;10.77;100.00
64340;BME280;63709;53.258;-8.814;2023-04-25T09:02:12;101928.53;;;10.97;100.00
64340;BME280;63709;53.258;-8.814;2023-04-25T09:04:43;101939.88;;;11.30;100.00
64340;BME280;63709;53.258;-8.814;2023-04-25T09:07:10;101935.06;;;11.07;100.00
64340;BME280;63709;53.258;-8.814;2023-04-25T09:09:39;101940.97;;;11.12;100.00
64340;BME280;63709;53.258;-8.814;2023-04-25T09:12:06;101929.00;;;11.33;100.00
64340;BME280;63709;53.258;-8.814;2023-04-25T09:14:31;101937.03;;;11.33;100.00
64340;BME280;63709;53.258;-8.814;2023-04-25T09:17:00;101918.81;;;11.40;100.00
64340;BME280;63709;53.258;-8.814;2023-04-25T09:19:29;101931.41;;;11.24;100.00
64340;BME280;63709;53.258;-8.814;2023-04-25T09:22:00;101927.16;;;11.50;100.00
64340;BME280;63709;53.258;-8.814;2023-04-25T09:24:44;101937.84;;;11.78;100.00
64340;BME280;63709;53.258;-8.814;2023-04-25T09:27:18;101873.69;;;11.50;100.00
64340;BME280;63709;53.258;-8.814;2023-04-25T09:29:45;101933.97;;;12.13;100.00
64340;BME280;63709;53.258;-8.814;2023-04-25T09:32:16;101926.88;;;12.53;100.00
64340;BME280;63709;53.258;-8.814;2023-04-25T09:34:51;101919.38;;;12.72;100.00
64340;BME280;63709;53.258;-8.814;2023-04-25T09:37:21;101906.38;;;13.19;100.00
64340;BME280;63709;53.258;-8.814;2023-04-25T09:39:49;101897.03;;;13.12;100.00
64340;BME280;63709;53.258;-8.814;2023-04-25T09:42:16;101911.81;;;13.44;100.00
64340;BME280;63709;53.258;-8.814;2023-04-25T09:44:44;101911.59;;;13.60;96.76
64340;BME280;63709;53.258;-8.814;2023-04-25T09:47:14;101895.97;;;14.03;98.78
64340;BME280;63709;53.258;-8.814;2023-04-25T09:49:41;101906.78;;;13.65;97.38
64340;BME280;63709;53.258;-8.814;2023-04-25T09:52:20;101907.72;;;13.64;94.58
64340;BME280;63709;53.258;-8.814;2023-04-25T09:54:47;101910.72;;;13.85;97.33
64340;BME280;63709;53.258;-8.814;2023-04-25T09:57:15;101907.31;;;13.58;94.29
64340;BME280;63709;53.258;-8.814;2023-04-25T09:59:47;101902.31;;;13.90;93.15
64340;BME280;63709;53.258;-8.814;2023-04-25T10:02:15;101905.28;;;14.11;93.93
64340;BME280;63709;53.258;-8.814;2023-04-25T10:04:42;101879.97;;;14.39;93.72
64340;BME280;63709;53.258;-8.814;2023-04-25T10:07:11;101882.41;;;14.55;94.76
64340;BME280;63709;53.258;-8.814;2023-04-25T10:09:38;101908.69;;;14.25;93.87
64340;BME280;63709;53.258;-8.814;2023-04-25T10:12:06;101909.81;;;14.47;82.44
64340;BME280;63709;53.258;-8.814;2023-04-25T10:14:35;101888.47;;;14.69;79.58
64340;BME280;63709;53.258;-8.814;2023-04-25T10:17:01;101875.03;;;14.69;78.16
64340;BME280;63709;53.258;-8.814;2023-04-25T10:19:27;101896.47;;;15.29;72.95
64340;BME280;63709;53.258;-8.814;2023-04-25T10:22:06;101866.06;;;14.45;65.93
64340;BME280;63709;53.258;-8.814;2023-04-25T10:24:32;101895.47;;;15.30;68.69
64340;BME280;63709;53.258;-8.814;2023-04-25T10:26:59;101886.22;;;14.63;66.15
64340;BME280;63709;53.258;-8.814;2023-04-25T10:29:26;101869.81;;;14.18;71.93
64340;BME280;63709;53.258;-8.814;2023-04-25T10:31:52;101875.41;;;14.28;76.55
64340;BME280;63709;53.258;-8.814;2023-04-25T10:34:18;101878.91;;;15.00;75.26
64340;BME280;63709;53.258;-8.814;2023-04-25T10:36:54;101868.03;;;14.67;63.74
64340;BME280;63709;53.258;-8.814;2023-04-25T10:39:24;101862.75;;;14.17;69.06
64340;BME280;63709;53.258;-8.814;2023-04-25T10:41:56;101869.19;;;15.22;68.80
64340;BME280;63709;53.258;-8.814;2023-04-25T10:44:22;101873.91;;;15.07;67.09
64340;BME280;63709;53.258;-8.814;2023-04-25T10:46:49;101872.38;;;14.33;67.49
64340;BME280;63709;53.258;-8.814;2023-04-25T10:49:36;101863.78;;;14.75;63.79
64340;BME280;63709;53.258;-8.814;2023-04-25T10:54:52;101869.66;;;16.39;65.75
64340;BME280;63709;53.258;-8.814;2023-04-25T10:57:40;101868.25;;;16.88;60.36
64340;BME280;63709;53.258;-8.814;2023-04-25T11:00:12;101852.94;;;17.10;59.08
64340;BME280;63709;53.258;-8.814;2023-04-25T11:02:57;101867.78;;;16.72;58.45
64340;BME280;63709;53.258;-8.814;2023-04-25T11:05:34;101838.13;;;17.04;54.32
64340;BME280;63709;53.258;-8.814;2023-04-25T11:08:00;101850.25;;;17.61;56.59
64340;BME280;63709;53.258;-8.814;2023-04-25T11:10:31;101854.56;;;18.24;52.73
64340;BME280;63709;53.258;-8.814;2023-04-25T11:12:57;101847.34;;;18.63;52.50
64340;BME280;63709;53.258;-8.814;2023-04-25T11:15:27;101789.91;;;19.08;48.11
64340;BME280;63709;53.258;-8.814;2023-04-25T11:17:56;101756.94;;;19.32;46.60
64340;BME280;63709;53.258;-8.814;2023-04-25T11:20:24;101782.09;;;19.79;44.25
64340;BME280;63709;53.258;-8.814;2023-04-25T11:22:51;101802.44;;;20.83;48.13
64340;BME280;63709;53.258;-8.814;2023-04-25T11:25:17;101820.66;;;21.42;46.56
64340;BME280;63709;53.258;-8.814;2023-04-25T11:27:58;101773.13;;;20.68;39.41
64340;BME280;63709;53.258;-8.814;2023-04-25T11:30:26;101810.50;;;21.87;38.59
64340;BME280;63709;53.258;-8.814;2023-04-25T11:32:51;101778.47;;;20.78;34.81
64340;BME280;63709;53.258;-8.814;2023-04-25T11:35:19;101810.34;;;21.02;39.20
64340;BME280;63709;53.258;-8.814;2023-04-25T11:37:46;101802.03;;;21.98;36.70
64340;BME280;63709;53.258;-8.814;2023-04-25T11:40:12;101812.03;;;20.41;38.15
64340;BME280;63709;53.258;-8.814;2023-04-25T11:42:39;101778.16;;;20.10;37.31
64340;BME280;63709;53.258;-8.814;2023-04-25T11:45:05;101788.13;;;19.36;40.23
64340;BME280;63709;53.258;-8.814;2023-04-25T11:47:35;101793.47;;;19.83;40.32
64340;BME280;63709;53.258;-8.814;2023-04-25T11:50:02;101775.34;;;20.29;38.35
64340;BME280;63709;53.258;-8.814;2023-04-25T11:52:43;101790.59;;;20.66;37.53
64340;BME280;63709;53.258;-8.814;2023-04-25T11:55:12;101796.47;;;20.25;39.38
64340;BME280;63709;53.258;-8.814;2023-04-25T11:57:47;101798.28;;;19.62;40.00
64340;BME280;63709;53.258;-8.814;2023-04-25T12:00:19;101771.63;;;18.34;44.38
64340;BME280;63709;53.258;-8.814;2023-04-25T12:03:08;101744.03;;;17.92;42.62
64340;BME280;63709;53.258;-8.814;2023-04-25T12:05:37;101784.44;;;18.51;40.86
64340;BME280;63709;53.258;-8.814;2023-04-25T12:08:16;101793.81;;;18.67;44.03
64340;BME280;63709;53.258;-8.814;2023-04-25T12:10:43;101751.28;;;18.01;41.66
64340;BME280;63709;53.258;-8.814;2023-04-25T12:13:23;101786.72;;;18.27;41.27
64340;BME280;63709;53.258;-8.814;2023-04-25T12:15:50;101777.72;;;18.17;41.93
64340;BME280;63709;53.258;-8.814;2023-04-25T12:18:19;101726.72;;;17.63;42.48
64340;BME280;63709;53.258;-8.814;2023-04-25T12:20:48;101752.00;;;17.53;42.89
64340;BME280;63709;53.258;-8.814;2023-04-25T12:23:15;101751.28;;;18.20;43.42
64340;BME280;63709;53.258;-8.814;2023-04-25T12:25:42;101717.44;;;18.16;45.21
64340;BME280;63709;53.258;-8.814;2023-04-25T12:28:22;101681.88;;;18.11;42.31
64340;BME280;63709;53.258;-8.814;2023-04-25T12:31:01;101763.38;;;18.26;42.23
64340;BME280;63709;53.258;-8.814;2023-04-25T12:33:35;101756.41;;;18.43;42.00
64340;BME280;63709;53.258;-8.814;2023-04-25T12:36:03;101756.81;;;18.57;41.09
64340;BME280;63709;53.258;-8.814;2023-04-25T12:38:39;101751.41;;;18.57;42.03
64340;BME280;63709;53.258;-8.814;2023-04-25T12:41:06;101745.84;;;18.78;42.27
64340;BME280;63709;53.258;-8.814;2023-04-25T12:43:32;101739.47;;;18.41;44.08